createdAt,value
2017-11-15T00:00:29.566Z,102538.05
2017-11-15T00:02:57.921Z,102536.22
2017-11-15T00:05:27.022Z,102540.64
2017-11-15T00:07:56.194Z,102537.30
2017-11-15T00:10:24.508Z,102542.33
2017-11-15T00:12:53.680Z,102536.48
2017-11-15T00:15:22.802Z,102539.98
2017-11-15T00:17:51.896Z,102538.16
2017-11-15T00:20:20.222Z,102541.99
2017-11-15T00:22:48.532Z,102539.75
2017-11-15T00:25:16.917Z,102539.42
2017-11-15T00:27:45.282Z,102543.84
2017-11-15T00:30:13.603Z,102534.55
2017-11-15T00:32:41.913Z,102530.80
2017-11-15T00:35:10.231Z,102530.12
2017-11-15T00:37:38.706Z,102528.20
2017-11-15T00:40:07.030Z,102531.70
2017-11-15T00:42:35.358Z,102529.60
2017-11-15T00:45:03.674Z,102525.37
2017-11-15T00:47:31.984Z,102529.94
2017-11-15T00:50:00.293Z,102533.11
2017-11-15T00:52:29.221Z,102542.25
2017-11-15T00:54:57.578Z,102544.83
2017-11-15T00:57:25.916Z,102545.25
2017-11-15T00:59:55.013Z,102543.91
2017-11-15T01:02:23.338Z,102541.28
2017-11-15T01:04:51.647Z,102535.09
2017-11-15T01:07:19.968Z,102535.68
2017-11-15T01:09:48.283Z,102528.50
2017-11-15T01:12:16.607Z,102534.08
2017-11-15T01:14:44.956Z,102529.91
2017-11-15T01:17:13.441Z,102532.60
2017-11-15T01:19:41.757Z,102531.11
2017-11-15T01:22:10.166Z,102529.58
2017-11-15T01:24:38.482Z,102529.28
2017-11-15T01:27:06.802Z,102529.03
2017-11-15T01:29:35.104Z,102528.44
2017-11-15T01:32:03.481Z,102522.83
2017-11-15T01:34:32.554Z,102528.00
2017-11-15T01:37:00.868Z,102532.43
2017-11-15T01:39:29.178Z,102530.45
2017-11-15T01:41:58.275Z,102533.54
2017-11-15T01:44:27.360Z,102527.94
2017-11-15T01:46:56.444Z,102531.95
2017-11-15T01:49:24.762Z,102529.77
2017-11-15T01:51:53.080Z,102531.03
2017-11-15T01:54:21.388Z,102531.34
2017-11-15T01:56:49.719Z,102530.51
2017-11-15T01:59:18.044Z,102527.50
2017-11-15T02:01:46.346Z,102525.24
2017-11-15T02:04:14.689Z,102525.82
2017-11-15T02:06:43.084Z,102528.91
2017-11-15T02:09:11.464Z,102525.16
2017-11-15T02:11:39.817Z,102526.94
2017-11-15T02:14:08.140Z,102524.17
2017-11-15T02:16:36.516Z,102527.02
2017-11-15T02:19:04.841Z,102518.09
2017-11-15T02:21:33.182Z,102516.25
2017-11-15T02:24:01.500Z,102514.23
2017-11-15T02:26:30.668Z,102516.62
2017-11-15T02:28:59.000Z,102516.05
2017-11-15T02:31:27.316Z,102517.67
2017-11-15T02:33:55.633Z,102515.66
2017-11-15T02:36:23.952Z,102512.80
2017-11-15T02:38:52.256Z,102509.47
2017-11-15T02:41:20.663Z,102510.55
2017-11-15T02:43:49.048Z,102512.05
2017-11-15T02:46:17.418Z,102510.98
2017-11-15T02:48:45.730Z,102506.39
2017-11-15T02:51:15.714Z,102511.32
2017-11-15T02:53:44.041Z,102513.72
2017-11-15T02:56:13.118Z,102513.91
2017-11-15T02:58:41.443Z,102510.47
2017-11-15T03:01:09.879Z,102508.98
2017-11-15T03:03:38.373Z,102504.80
2017-11-15T03:06:06.700Z,102498.28
2017-11-15T03:08:35.016Z,102498.13
2017-11-15T03:11:03.336Z,102500.80
2017-11-15T03:13:32.477Z,102500.09
2017-11-15T03:16:00.799Z,102500.00
2017-11-15T03:18:29.229Z,102507.53
2017-11-15T03:20:57.550Z,102514.19
2017-11-15T03:23:25.858Z,102506.02
2017-11-15T03:25:54.961Z,102498.25
2017-11-15T03:28:24.029Z,102501.42
2017-11-15T03:30:52.357Z,102504.44
2017-11-15T03:33:20.681Z,102496.58
2017-11-15T03:35:48.993Z,102501.27
2017-11-15T03:38:17.309Z,102493.41
2017-11-15T03:40:45.747Z,102498.83
2017-11-15T03:43:14.055Z,102502.84
2017-11-15T03:45:43.129Z,102502.68
2017-11-15T03:48:11.501Z,102505.77
2017-11-15T03:50:39.837Z,102503.76
2017-11-15T03:53:08.967Z,102498.58
2017-11-15T03:55:37.277Z,102504.11
2017-11-15T03:58:05.613Z,102507.78
2017-11-15T04:00:33.936Z,102504.00
2017-11-15T04:03:02.317Z,102501.52
2017-11-15T04:05:30.630Z,102508.02
2017-11-15T04:07:59.742Z,102500.67
2017-11-15T04:10:28.842Z,102504.69
2017-11-15T04:12:57.993Z,102505.28
2017-11-15T04:15:26.373Z,102507.96
2017-11-15T04:17:54.703Z,102509.78
2017-11-15T04:20:23.865Z,102510.52
2017-11-15T04:22:52.310Z,102517.90
2017-11-15T04:25:20.611Z,102521.80
2017-11-15T04:27:48.942Z,102516.70
2017-11-15T04:30:18.028Z,102514.55
2017-11-15T04:32:46.361Z,102519.06
2017-11-15T04:35:14.665Z,102515.55
2017-11-15T04:37:42.997Z,102513.97
2017-11-15T04:40:12.787Z,102515.30
2017-11-15T04:42:41.117Z,102506.85
2017-11-15T04:45:09.443Z,102515.39
2017-11-15T04:47:37.759Z,102518.70
2017-11-15T04:50:06.875Z,102515.79
2017-11-15T04:52:35.192Z,102524.14
2017-11-15T04:55:03.516Z,102519.98
2017-11-15T04:57:32.665Z,102519.72
2017-11-15T05:00:00.968Z,102519.64
2017-11-15T05:02:29.269Z,102524.80
2017-11-15T05:04:57.609Z,102522.52
2017-11-15T05:07:25.944Z,102516.70
2017-11-15T05:09:55.020Z,102527.66
2017-11-15T05:12:24.122Z,102524.74
2017-11-15T05:14:52.453Z,102520.23
2017-11-15T05:17:20.786Z,102522.15
2017-11-15T05:19:49.115Z,102520.89
2017-11-15T05:22:17.435Z,102523.64
2017-11-15T05:24:45.763Z,102521.34
2017-11-15T05:27:14.860Z,102522.91
2017-11-15T05:29:43.931Z,102522.34
2017-11-15T05:32:12.273Z,102524.52
2017-11-15T05:34:40.615Z,102523.34
2017-11-15T05:37:09.784Z,102524.59
2017-11-15T05:39:38.094Z,102523.02
2017-11-15T05:42:07.901Z,102523.02
2017-11-15T05:44:36.207Z,102523.39
2017-11-15T05:47:04.521Z,102519.09
2017-11-15T05:49:32.889Z,102523.25
2017-11-15T05:52:01.300Z,102531.95
2017-11-15T05:54:29.677Z,102531.12
2017-11-15T05:56:58.013Z,102540.31
2017-11-15T05:59:27.130Z,102536.46
2017-11-15T06:01:55.626Z,102532.66
2017-11-15T06:04:23.955Z,102535.34
2017-11-15T06:06:52.264Z,102524.98
2017-11-15T06:09:21.357Z,102537.51
2017-11-15T06:11:50.504Z,102532.50
2017-11-15T06:14:18.862Z,102533.42
2017-11-15T06:16:47.082Z,102536.27
2017-11-15T06:19:15.451Z,102539.03
2017-11-15T06:21:43.749Z,102541.81
2017-11-15T06:24:12.116Z,102539.30
2017-11-15T06:26:40.509Z,102545.39
2017-11-15T06:29:08.893Z,102549.16
2017-11-15T06:31:37.228Z,102551.81
2017-11-15T06:34:05.523Z,102551.94
2017-11-15T06:36:34.710Z,102552.59
2017-11-15T06:39:02.930Z,102563.62
2017-11-15T06:41:31.238Z,102562.63
2017-11-15T06:43:59.591Z,102567.50
2017-11-15T06:46:27.931Z,102572.77
2017-11-15T06:48:57.018Z,102567.42
2017-11-15T06:51:26.107Z,102570.83
2017-11-15T06:53:54.415Z,102566.66
2017-11-15T06:56:23.502Z,102574.87
2017-11-15T06:58:52.606Z,102568.17
2017-11-15T07:01:21.677Z,102580.37
2017-11-15T07:03:49.983Z,102573.69
2017-11-15T07:06:19.101Z,102577.80
2017-11-15T07:08:47.408Z,102579.97
2017-11-15T07:11:15.727Z,102570.95
2017-11-15T07:13:44.829Z,102573.79
2017-11-15T07:16:13.198Z,102575.05
2017-11-15T07:18:41.796Z,102576.61
2017-11-15T07:21:10.435Z,102573.79
2017-11-15T07:23:38.773Z,102575.13
2017-11-15T07:26:07.094Z,102574.28
2017-11-15T07:28:35.408Z,102583.05
2017-11-15T07:31:03.760Z,102584.82
2017-11-15T07:33:32.063Z,102587.41
2017-11-15T07:36:00.397Z,102591.92
2017-11-15T07:38:29.492Z,102596.08
2017-11-15T07:40:58.633Z,102597.36
2017-11-15T07:43:26.944Z,102599.27
2017-11-15T07:45:55.267Z,102602.19
2017-11-15T07:48:24.364Z,102605.62
2017-11-15T07:50:53.434Z,102602.29
2017-11-15T07:53:21.800Z,102606.20
2017-11-15T07:55:50.189Z,102605.95
2017-11-15T07:58:18.532Z,102605.70
2017-11-15T08:00:46.845Z,102606.15
2017-11-15T08:03:15.169Z,102604.46
2017-11-15T08:05:44.262Z,102610.23
2017-11-15T08:08:13.353Z,102615.83
2017-11-15T08:10:41.658Z,102606.81
2017-11-15T08:13:10.746Z,102605.64
2017-11-15T08:15:39.831Z,102614.16
2017-11-15T08:18:08.161Z,102612.82
2017-11-15T08:20:37.120Z,102613.08
2017-11-15T08:23:06.206Z,102610.83
2017-11-15T08:25:34.521Z,102612.74
2017-11-15T08:28:03.611Z,102609.41
2017-11-15T08:30:31.954Z,102601.47
2017-11-15T08:33:00.295Z,102611.34
2017-11-15T08:35:28.604Z,102606.25
2017-11-15T08:37:56.937Z,102609.35
2017-11-15T08:40:25.293Z,102610.59
2017-11-15T08:42:53.618Z,102615.44
2017-11-15T08:45:21.921Z,102612.66
2017-11-15T08:47:50.234Z,102615.59
2017-11-15T08:50:18.561Z,102610.51
2017-11-15T08:52:46.873Z,102617.94
2017-11-15T08:55:15.283Z,102617.88
2017-11-15T08:57:43.598Z,102609.63
2017-11-15T09:00:12.683Z,102612.38
2017-11-15T09:02:41.752Z,102621.33
2017-11-15T09:05:10.066Z,102618.66
2017-11-15T09:07:39.273Z,102618.06
2017-11-15T09:10:08.380Z,102617.81
2017-11-15T09:12:37.476Z,102626.94
2017-11-15T09:15:06.556Z,102627.20
2017-11-15T09:17:34.876Z,102629.71
2017-11-15T09:20:03.188Z,102629.53
2017-11-15T09:22:31.498Z,102629.71
2017-11-15T09:24:59.875Z,102631.39
2017-11-15T09:27:28.940Z,102634.55
2017-11-15T09:29:57.255Z,102638.64
2017-11-15T09:32:25.635Z,102642.57
2017-11-15T09:34:53.970Z,102642.66
2017-11-15T09:37:22.314Z,102647.10
2017-11-15T09:39:50.648Z,102647.84
2017-11-15T09:42:18.962Z,102655.11
2017-11-15T09:44:47.300Z,102653.02
2017-11-15T09:47:15.602Z,102657.20
2017-11-15T09:49:43.986Z,102653.73
2017-11-15T09:52:12.316Z,102642.18
2017-11-15T09:54:41.388Z,102652.66
2017-11-15T09:57:09.703Z,102646.72
2017-11-15T09:59:38.218Z,102651.80
2017-11-15T10:02:06.550Z,102656.31
2017-11-15T10:04:34.883Z,102656.30
2017-11-15T10:07:03.191Z,102657.82
2017-11-15T10:09:31.598Z,102659.14
2017-11-15T10:11:59.939Z,102655.75
2017-11-15T10:14:28.361Z,102657.07
2017-11-15T10:17:07.278Z,102660.33
2017-11-15T10:19:35.597Z,102665.04
2017-11-15T10:22:04.688Z,102663.68
2017-11-15T10:24:33.780Z,102663.79
2017-11-15T10:27:02.960Z,102656.57
2017-11-15T10:29:31.324Z,102647.05
2017-11-15T10:31:59.637Z,102650.16
2017-11-15T10:34:28.732Z,102647.56
2017-11-15T10:36:57.058Z,102647.78
2017-11-15T10:39:25.388Z,102646.79
2017-11-15T10:41:53.756Z,102646.94
2017-11-15T10:44:22.063Z,102646.94
2017-11-15T10:46:50.382Z,102646.77
2017-11-15T10:49:18.711Z,102642.76
2017-11-15T10:51:47.030Z,102644.52
2017-11-15T10:54:15.346Z,102642.02
2017-11-15T10:56:43.688Z,102642.27
2017-11-15T10:59:12.791Z,102632.77
2017-11-15T11:01:41.876Z,102640.47
2017-11-15T11:04:10.191Z,102646.47
2017-11-15T11:06:38.524Z,102644.63
2017-11-15T11:09:08.353Z,102638.55
2017-11-15T11:11:36.687Z,102640.81
2017-11-15T11:14:05.000Z,102639.22
2017-11-15T11:16:33.320Z,102626.87
2017-11-15T11:19:01.670Z,102629.72
2017-11-15T11:21:29.991Z,102633.99
2017-11-15T11:23:58.307Z,102631.48
2017-11-15T11:26:26.653Z,102630.63
2017-11-15T11:28:54.961Z,102628.20
2017-11-15T11:31:23.281Z,102625.31
2017-11-15T11:33:52.428Z,102620.03
2017-11-15T11:36:20.726Z,102620.66
2017-11-15T11:38:49.044Z,102617.46
2017-11-15T11:41:17.451Z,102614.56
2017-11-15T11:43:46.520Z,102613.22
2017-11-15T11:46:14.853Z,102614.73
2017-11-15T11:48:43.154Z,102611.97
2017-11-15T11:51:11.467Z,102618.21
2017-11-15T11:53:39.803Z,102615.36
2017-11-15T11:56:08.125Z,102610.79
2017-11-15T11:58:36.447Z,102614.55
2017-11-15T12:01:05.556Z,102611.69
2017-11-15T12:03:33.877Z,102614.50
2017-11-15T12:06:02.203Z,102609.31
2017-11-15T12:08:31.284Z,102609.64
2017-11-15T12:10:59.627Z,102617.19
2017-11-15T12:13:27.949Z,102614.04
2017-11-15T12:15:56.261Z,102612.32
2017-11-15T12:18:24.573Z,102606.36
2017-11-15T12:20:52.890Z,102611.39
2017-11-15T12:23:21.219Z,102603.64
2017-11-15T12:25:49.563Z,102601.31
2017-11-15T12:28:17.864Z,102598.55
2017-11-15T12:30:46.964Z,102596.94
2017-11-15T12:33:16.036Z,102593.63
2017-11-15T12:35:44.366Z,102589.09
2017-11-15T12:38:12.674Z,102592.54
2017-11-15T12:40:41.055Z,102594.67
2017-11-15T12:43:09.503Z,102598.71
2017-11-15T12:45:37.812Z,102596.13
2017-11-15T12:48:06.115Z,102595.25
2017-11-15T12:50:34.555Z,102591.31
2017-11-15T12:53:02.889Z,102592.83
2017-11-15T12:55:31.210Z,102583.95
2017-11-15T12:57:59.527Z,102588.14
2017-11-15T13:00:27.853Z,102588.99
2017-11-15T13:02:56.940Z,102584.52
2017-11-15T13:05:25.272Z,102585.86
2017-11-15T13:07:53.600Z,102589.64
2017-11-15T13:10:21.907Z,102590.42
2017-11-15T13:12:51.007Z,102587.33
2017-11-15T13:15:20.079Z,102582.30
2017-11-15T13:17:48.409Z,102581.63
2017-11-15T13:20:16.733Z,102578.38
2017-11-15T13:22:45.083Z,102579.22
2017-11-15T13:25:13.411Z,102580.09
2017-11-15T13:27:41.735Z,102579.97
2017-11-15T13:30:10.035Z,102578.59
2017-11-15T13:32:38.380Z,102584.62
2017-11-15T13:35:07.532Z,102583.82
2017-11-15T13:37:35.975Z,102581.70
2017-11-15T13:40:05.097Z,102585.41
2017-11-15T13:42:33.409Z,102585.75
2017-11-15T13:45:01.726Z,102586.92
2017-11-15T13:47:30.807Z,102591.11
2017-11-15T13:49:59.116Z,102590.35
2017-11-15T13:52:27.521Z,102592.19
2017-11-15T13:54:55.849Z,102596.80
2017-11-15T13:57:24.160Z,102598.14
2017-11-15T13:59:53.227Z,102596.80
2017-11-15T14:02:21.536Z,102593.20
2017-11-15T14:04:50.616Z,102588.26
2017-11-15T14:07:18.933Z,102590.69
2017-11-15T14:09:47.251Z,102594.88
2017-11-15T14:12:15.591Z,102594.91
2017-11-15T14:14:44.716Z,102590.80
2017-11-15T14:17:13.774Z,102588.45
2017-11-15T14:19:42.858Z,102591.80
2017-11-15T14:22:11.175Z,102586.36
2017-11-15T14:24:39.486Z,102588.88
2017-11-15T14:27:07.817Z,102584.85
2017-11-15T14:29:37.371Z,102583.09
2017-11-15T14:32:05.708Z,102585.77
2017-11-15T14:34:34.026Z,102593.14
2017-11-15T14:37:02.340Z,102594.64
2017-11-15T14:39:30.660Z,102602.25
2017-11-15T14:41:59.730Z,102594.67
2017-11-15T14:44:28.059Z,102595.08
2017-11-15T14:46:56.362Z,102599.34
2017-11-15T14:49:24.678Z,102592.77
2017-11-15T14:51:52.987Z,102590.33
2017-11-15T14:54:22.079Z,102596.17
2017-11-15T14:56:51.213Z,102600.60
2017-11-15T14:59:19.525Z,102598.12
2017-11-15T15:01:47.839Z,102592.67
2017-11-15T15:04:16.177Z,102596.69
2017-11-15T15:06:44.519Z,102590.91
2017-11-15T15:09:13.598Z,102595.09
2017-11-15T15:11:41.968Z,102600.27
2017-11-15T15:14:10.295Z,102597.09
2017-11-15T15:16:38.623Z,102595.75
2017-11-15T15:19:06.962Z,102599.34
2017-11-15T15:21:35.266Z,102608.05
2017-11-15T15:24:03.698Z,102605.53
2017-11-15T15:26:32.796Z,102605.31
2017-11-15T15:29:01.897Z,102604.06
2017-11-15T15:31:30.211Z,102602.22
2017-11-15T15:33:58.531Z,102603.14
2017-11-15T15:36:26.868Z,102599.29
2017-11-15T15:38:55.187Z,102602.20
2017-11-15T15:41:23.492Z,102604.05
2017-11-15T15:43:51.800Z,102593.17
2017-11-15T15:46:20.895Z,102599.52
2017-11-15T15:48:49.975Z,102599.02
2017-11-15T15:51:18.306Z,102601.70
2017-11-15T15:53:46.610Z,102599.86
2017-11-15T15:56:14.907Z,102599.28
2017-11-15T15:58:43.232Z,102604.11
2017-11-15T16:01:11.586Z,102597.59
2017-11-15T16:03:39.920Z,102594.75
2017-11-15T16:06:08.223Z,102598.52
2017-11-15T16:08:36.545Z,102597.59
2017-11-15T16:11:05.630Z,102590.41
2017-11-15T16:13:33.938Z,102589.31
2017-11-15T16:16:02.266Z,102585.71
2017-11-15T16:18:30.574Z,102581.89
2017-11-15T16:20:59.722Z,102584.14
2017-11-15T16:23:28.049Z,102588.80
2017-11-15T16:25:57.121Z,102592.23
2017-11-15T16:28:25.442Z,102594.67
2017-11-15T16:30:53.753Z,102594.41
2017-11-15T16:33:22.090Z,102595.75
2017-11-15T16:35:50.404Z,102594.49
2017-11-15T16:38:19.491Z,102592.73
2017-11-15T16:40:48.565Z,102598.78
2017-11-15T16:43:17.012Z,102593.25
2017-11-15T16:45:45.364Z,102596.09
2017-11-15T16:48:14.463Z,102598.02
2017-11-15T16:50:43.555Z,102593.32
2017-11-15T16:53:11.915Z,102594.16
2017-11-15T16:55:40.261Z,102595.33
2017-11-15T16:58:08.847Z,102591.97
2017-11-15T17:00:37.171Z,102591.56
2017-11-15T17:03:05.496Z,102590.23
2017-11-15T17:05:33.833Z,102596.25
2017-11-15T17:08:02.375Z,102602.52
2017-11-15T17:10:30.690Z,102598.67
2017-11-15T17:12:59.012Z,102596.91
2017-11-15T17:15:28.117Z,102594.92
2017-11-15T17:17:57.231Z,102592.58
2017-11-15T17:20:26.190Z,102588.39
2017-11-15T17:22:54.493Z,102581.45
2017-11-15T17:25:23.581Z,102581.96
2017-11-15T17:27:52.725Z,102586.97
2017-11-15T17:30:21.080Z,102586.72
2017-11-15T17:32:50.202Z,102588.89
2017-11-15T17:35:18.523Z,102589.55
2017-11-15T17:37:46.919Z,102596.06
2017-11-15T17:40:15.282Z,102594.12
2017-11-15T17:42:43.607Z,102592.47
2017-11-15T17:45:12.683Z,102601.81
2017-11-15T17:47:41.061Z,102598.88
2017-11-15T17:50:09.473Z,102602.72
2017-11-15T17:52:37.813Z,102598.22
2017-11-15T17:55:06.117Z,102601.81
2017-11-15T17:57:35.253Z,102600.55
2017-11-15T18:00:03.578Z,102597.70
2017-11-15T18:02:31.888Z,102602.88
2017-11-15T18:05:00.195Z,102607.23
2017-11-15T18:07:28.524Z,102601.15
2017-11-15T18:09:56.848Z,102600.73
2017-11-15T18:12:25.963Z,102589.77
2017-11-15T18:14:54.286Z,102582.84
2017-11-15T18:17:22.632Z,102582.19
2017-11-15T18:19:50.974Z,102585.28
2017-11-15T18:22:19.286Z,102590.13
2017-11-15T18:24:47.611Z,102591.11
2017-11-15T18:27:15.916Z,102586.86
2017-11-15T18:29:44.248Z,102587.94
2017-11-15T18:32:12.647Z,102583.51
2017-11-15T18:34:40.958Z,102582.86
2017-11-15T18:37:09.290Z,102579.17
2017-11-15T18:39:37.625Z,102580.93
2017-11-15T18:42:05.936Z,102583.45
2017-11-15T18:44:34.266Z,102582.67
2017-11-15T18:47:02.579Z,102579.08
2017-11-15T18:49:30.885Z,102579.58
2017-11-15T18:51:59.217Z,102583.36
2017-11-15T18:54:27.541Z,102580.69
2017-11-15T18:56:56.638Z,102576.85
2017-11-15T18:59:25.704Z,102577.94
2017-11-15T19:01:54.013Z,102573.50
2017-11-15T19:04:23.106Z,102575.08
2017-11-15T19:06:51.413Z,102574.66
2017-11-15T19:09:19.739Z,102579.25
2017-11-15T19:11:48.065Z,102580.00
2017-11-15T19:14:17.156Z,102577.09
2017-11-15T19:16:46.313Z,102582.75
2017-11-15T19:19:14.610Z,102577.02
2017-11-15T19:21:43.029Z,102585.27
2017-11-15T19:24:12.203Z,102581.59
2017-11-15T19:26:40.514Z,102589.53
2017-11-15T19:29:09.584Z,102579.75
2017-11-15T19:31:37.906Z,102583.43
2017-11-15T19:34:06.227Z,102590.62
2017-11-15T19:36:34.609Z,102592.20
2017-11-15T19:39:02.946Z,102590.95
2017-11-15T19:41:32.063Z,102585.36
2017-11-15T19:44:00.389Z,102591.73
2017-11-15T19:46:28.744Z,102584.01
2017-11-15T19:48:57.059Z,102589.21
2017-11-15T19:51:25.381Z,102587.30
2017-11-15T19:53:53.701Z,102589.63
2017-11-15T19:56:22.110Z,102589.53
2017-11-15T19:58:51.217Z,102588.38
2017-11-15T20:01:19.538Z,102589.29
2017-11-15T20:03:48.011Z,102585.42
2017-11-15T20:06:16.335Z,102591.53
2017-11-15T20:08:44.656Z,102593.47
2017-11-15T20:11:12.998Z,102593.14
2017-11-15T20:13:41.389Z,102590.23
2017-11-15T20:16:09.689Z,102598.25
2017-11-15T20:18:38.058Z,102592.48
2017-11-15T20:21:06.371Z,102597.67
2017-11-15T20:23:35.535Z,102598.16
2017-11-15T20:26:03.969Z,102600.25
2017-11-15T20:28:33.050Z,102601.59
2017-11-15T20:31:02.141Z,102599.91
2017-11-15T20:33:30.462Z,102608.02
2017-11-15T20:35:58.789Z,102605.27
2017-11-15T20:38:27.136Z,102602.92
2017-11-15T20:40:55.446Z,102606.20
2017-11-15T20:43:23.827Z,102601.10
2017-11-15T20:45:52.136Z,102606.13
2017-11-15T20:48:21.222Z,102602.36
2017-11-15T20:50:49.597Z,102601.36
2017-11-15T20:53:17.913Z,102603.88
2017-11-15T20:55:47.040Z,102598.28
2017-11-15T20:58:15.346Z,102605.61
2017-11-15T21:00:43.657Z,102599.27
2017-11-15T21:03:11.976Z,102595.09
2017-11-15T21:05:40.279Z,102600.37
2017-11-15T21:08:08.615Z,102593.66
2017-11-15T21:10:37.719Z,102590.73
2017-11-15T21:13:06.823Z,102581.88
2017-11-15T21:15:35.986Z,102590.49
2017-11-15T21:18:04.304Z,102590.66
2017-11-15T21:20:33.403Z,102589.66
2017-11-15T21:23:02.479Z,102584.14
2017-11-15T21:25:30.811Z,102577.36
2017-11-15T21:27:59.122Z,102574.27
2017-11-15T21:30:27.498Z,102572.69
2017-11-15T21:32:55.820Z,102574.52
2017-11-15T21:35:24.903Z,102564.56
2017-11-15T21:37:53.223Z,102564.65
2017-11-15T21:40:21.534Z,102562.88
2017-11-15T21:42:49.893Z,102557.14
2017-11-15T21:45:18.983Z,102555.95
2017-11-15T21:47:48.056Z,102543.41
2017-11-15T21:50:16.369Z,102544.58
2017-11-15T21:52:44.686Z,102540.48
2017-11-15T21:55:13.032Z,102537.88
2017-11-15T21:57:41.360Z,102539.14
2017-11-15T22:00:09.695Z,102533.20
2017-11-15T22:02:38.002Z,102537.47
2017-11-15T22:05:06.302Z,102540.89
2017-11-15T22:07:34.629Z,102538.58
2017-11-15T22:10:03.715Z,102537.98
2017-11-15T22:12:32.028Z,102542.83
2017-11-15T22:15:00.337Z,102546.75
2017-11-15T22:17:28.648Z,102546.41
2017-11-15T22:19:56.973Z,102543.23
2017-11-15T22:22:25.338Z,102539.92
2017-11-15T22:24:54.428Z,102538.48
2017-11-15T22:27:23.493Z,102537.90
2017-11-15T22:29:51.834Z,102544.75
2017-11-15T22:32:20.143Z,102545.08
2017-11-15T22:34:48.454Z,102550.10
2017-11-15T22:37:16.834Z,102544.75
2017-11-15T22:39:45.156Z,102544.42
2017-11-15T22:42:14.243Z,102549.19
2017-11-15T22:44:43.317Z,102541.34
2017-11-15T22:47:11.686Z,102541.00
2017-11-15T22:49:40.064Z,102537.07
2017-11-15T22:52:08.388Z,102529.38
2017-11-15T22:54:37.463Z,102535.30
2017-11-15T22:57:05.795Z,102533.30
2017-11-15T22:59:34.204Z,102530.45
2017-11-15T23:02:02.618Z,102531.79
2017-11-15T23:04:30.989Z,102533.55
2017-11-15T23:07:00.826Z,102528.20
2017-11-15T23:09:29.913Z,102528.69
2017-11-15T23:11:58.230Z,102522.08
2017-11-15T23:14:26.555Z,102525.01
2017-11-15T23:16:54.879Z,102523.84
2017-11-15T23:19:23.968Z,102517.24
2017-11-15T23:21:52.394Z,102520.00
2017-11-15T23:24:20.699Z,102520.08
2017-11-15T23:26:49.100Z,102518.17
2017-11-15T23:29:17.417Z,102524.59
2017-11-15T23:31:46.505Z,102525.53
2017-11-15T23:34:15.584Z,102524.69
2017-11-15T23:36:43.966Z,102530.11
2017-11-15T23:39:12.355Z,102531.20
2017-11-15T23:41:40.666Z,102525.52
2017-11-15T23:44:09.750Z,102520.41
2017-11-15T23:46:38.846Z,102515.58
2017-11-15T23:49:07.304Z,102512.40
2017-11-15T23:51:35.654Z,102518.16
2017-11-15T23:54:03.954Z,102504.88
2017-11-15T23:56:32.254Z,102511.31
2017-11-15T23:59:00.559Z,102512.13
